createdAt,value
2019-06-10T00:02:16.210Z,19.74
2019-06-10T00:04:52.280Z,19.73
2019-06-10T00:07:28.343Z,19.71
2019-06-10T00:10:07.464Z,19.67
2019-06-10T00:12:43.520Z,19.65
2019-06-10T00:15:21.380Z,19.63
2019-06-10T00:18:18.993Z,19.61
2019-06-10T00:20:35.387Z,19.57
2019-06-10T00:23:12.485Z,19.54
2019-06-10T00:25:51.409Z,19.51
2019-06-10T00:28:26.745Z,19.48
2019-06-10T00:31:03.961Z,19.41
2019-06-10T00:33:41.381Z,19.39
2019-06-10T00:36:17.578Z,19.34
2019-06-10T00:38:53.535Z,19.34
2019-06-10T00:41:31.452Z,19.31
2019-06-10T00:44:08.400Z,19.27
2019-06-10T00:46:45.504Z,19.22
2019-06-10T00:49:21.564Z,19.20
2019-06-10T00:51:57.620Z,19.18
2019-06-10T00:54:34.695Z,19.16
2019-06-10T00:57:12.375Z,19.11
2019-06-10T00:59:50.664Z,19.09
2019-06-10T01:02:26.162Z,19.06
2019-06-10T01:05:03.089Z,19.01
2019-06-10T01:07:41.442Z,19.01
2019-06-10T01:10:17.505Z,18.98
2019-06-10T01:12:53.568Z,18.93
2019-06-10T01:15:31.165Z,18.89
2019-06-10T01:18:24.824Z,18.83
2019-06-10T01:20:45.635Z,18.82
2019-06-10T01:23:21.978Z,18.78
2019-06-10T01:26:01.349Z,18.75
2019-06-10T01:28:36.665Z,18.75
2019-06-10T01:31:17.589Z,18.71
2019-06-10T01:33:51.298Z,18.72
2019-06-10T01:36:27.402Z,18.70
2019-06-10T01:39:04.497Z,18.71
2019-06-10T01:41:40.913Z,18.73
2019-06-10T01:44:17.732Z,18.74
2019-06-10T01:46:53.800Z,18.79
2019-06-10T01:49:30.750Z,18.81
2019-06-10T01:52:07.258Z,18.86
2019-06-10T01:54:43.409Z,18.90
2019-06-10T01:57:21.242Z,18.98
2019-06-10T01:59:57.056Z,19.18
2019-06-10T02:02:35.158Z,19.33
2019-06-10T02:05:14.637Z,19.34
2019-06-10T02:07:51.522Z,19.35
2019-06-10T02:10:27.251Z,19.41
2019-06-10T02:13:03.423Z,19.53
2019-06-10T02:15:41.033Z,19.79
2019-06-10T02:18:18.058Z,19.97
2019-06-10T02:20:54.108Z,19.95
2019-06-10T02:23:31.393Z,19.95
2019-06-10T02:26:07.633Z,19.98
2019-06-10T02:28:43.541Z,19.94
2019-06-10T02:31:29.100Z,20.00
2019-06-10T02:33:57.404Z,20.18
2019-06-10T02:36:36.821Z,20.23
2019-06-10T02:39:16.652Z,20.07
2019-06-10T02:41:49.323Z,20.01
2019-06-10T02:44:32.651Z,19.95
2019-06-10T02:47:03.533Z,20.03
2019-06-10T02:49:56.461Z,19.89
2019-06-10T02:52:22.993Z,19.73
2019-06-10T02:54:57.544Z,19.60
2019-06-10T02:57:39.659Z,19.64
2019-06-10T03:00:20.801Z,19.63
2019-06-10T03:02:52.954Z,19.76
2019-06-10T03:05:35.210Z,19.73
2019-06-10T03:08:05.502Z,20.03
2019-06-10T03:10:44.275Z,20.12
2019-06-10T03:13:19.745Z,20.20
2019-06-10T03:16:02.959Z,20.38
2019-06-10T03:18:38.974Z,20.40
2019-06-10T03:21:15.936Z,20.40
2019-06-10T03:23:53.152Z,20.55
2019-06-10T03:26:29.090Z,20.82
2019-06-10T03:29:05.011Z,20.85
2019-06-10T03:31:46.435Z,20.78
2019-06-10T03:34:23.234Z,21.10
2019-06-10T03:36:56.271Z,21.09
2019-06-10T03:39:32.337Z,21.24
2019-06-10T03:42:09.636Z,21.53
2019-06-10T03:44:47.787Z,21.72
2019-06-10T03:47:24.373Z,21.85
2019-06-10T03:50:03.256Z,21.93
2019-06-10T03:52:39.211Z,21.99
2019-06-10T03:55:17.236Z,22.00
2019-06-10T03:57:53.676Z,22.15
2019-06-10T04:00:29.738Z,22.27
2019-06-10T04:03:06.605Z,22.35
2019-06-10T04:05:46.876Z,22.47
2019-06-10T04:08:28.081Z,22.57
2019-06-10T04:11:04.004Z,22.60
2019-06-10T04:13:39.914Z,22.69
2019-06-10T04:16:15.830Z,22.73
2019-06-10T04:18:53.474Z,22.83
2019-06-10T04:21:29.665Z,23.03
2019-06-10T04:24:05.931Z,23.40
2019-06-10T04:26:43.462Z,23.62
2019-06-10T04:29:22.576Z,24.05
2019-06-10T04:31:58.004Z,24.84
2019-06-10T04:34:34.020Z,25.82
2019-06-10T04:37:12.339Z,26.63
2019-06-10T04:39:47.546Z,27.46
2019-06-10T04:42:25.703Z,28.16
2019-06-10T04:45:03.217Z,28.75
2019-06-10T04:47:39.975Z,29.24
2019-06-10T04:50:24.945Z,29.87
2019-06-10T04:52:53.938Z,30.19
2019-06-10T04:55:29.894Z,30.67
2019-06-10T04:58:05.856Z,31.08
2019-06-10T05:00:42.866Z,31.23
2019-06-10T05:03:18.993Z,31.57
2019-06-10T05:05:56.075Z,31.64
2019-06-10T05:08:33.836Z,31.93
2019-06-10T05:11:10.036Z,31.61
2019-06-10T05:13:45.997Z,30.74
2019-06-10T05:16:27.016Z,29.18
2019-06-10T05:19:03.616Z,27.98
2019-06-10T05:21:38.588Z,26.94
2019-06-10T05:24:14.641Z,26.32
2019-06-10T05:26:52.561Z,25.79
2019-06-10T05:29:29.553Z,25.43
2019-06-10T05:32:06.287Z,25.09
2019-06-10T05:34:43.721Z,24.82
2019-06-10T05:37:21.286Z,24.73
2019-06-10T05:39:57.653Z,24.58
2019-06-10T05:42:36.149Z,24.47
2019-06-10T05:45:12.693Z,24.40
2019-06-10T05:47:48.688Z,24.34
2019-06-10T05:50:25.257Z,24.33
2019-06-10T05:53:02.596Z,24.31
2019-06-10T05:55:38.609Z,24.29
2019-06-10T05:58:14.555Z,24.27
2019-06-10T06:00:53.011Z,24.25
2019-06-10T06:03:28.315Z,24.26
2019-06-10T06:06:04.283Z,24.25
2019-06-10T06:08:42.653Z,24.29
2019-06-10T06:11:18.348Z,24.28
2019-06-10T06:13:54.400Z,24.32
2019-06-10T06:16:32.652Z,24.33
2019-06-10T06:19:08.046Z,24.38
2019-06-10T06:21:47.587Z,24.48
2019-06-10T06:24:22.089Z,24.55
2019-06-10T06:26:58.169Z,24.63
2019-06-10T06:29:36.575Z,24.79
2019-06-10T06:32:13.207Z,24.91
2019-06-10T06:34:49.421Z,25.01
2019-06-10T06:37:26.791Z,25.05
2019-06-10T06:40:03.002Z,25.14
2019-06-10T06:42:39.126Z,25.24
2019-06-10T06:45:16.550Z,25.33
2019-06-10T06:47:52.867Z,25.37
2019-06-10T06:50:30.174Z,25.46
2019-06-10T06:53:21.341Z,25.51
2019-06-10T06:55:45.062Z,25.63
2019-06-10T06:58:23.023Z,25.68
2019-06-10T07:01:08.367Z,25.72
2019-06-10T07:03:38.574Z,25.83
2019-06-10T07:06:15.965Z,25.96
2019-06-10T07:09:04.274Z,26.00
2019-06-10T07:11:34.586Z,26.04
2019-06-10T07:14:13.394Z,26.14
2019-06-10T07:16:52.812Z,26.23
2019-06-10T07:19:28.222Z,26.28
2019-06-10T07:22:12.227Z,26.40
2019-06-10T07:24:46.880Z,26.44
2019-06-10T07:27:19.675Z,26.52
2019-06-10T07:29:55.642Z,26.56
2019-06-10T07:32:34.272Z,26.63
2019-06-10T07:35:09.771Z,26.70
2019-06-10T07:37:46.150Z,26.76
2019-06-10T07:40:22.430Z,26.79
2019-06-10T07:42:58.485Z,26.87
2019-06-10T07:45:37.791Z,26.95
2019-06-10T07:48:12.286Z,26.96
2019-06-10T07:50:48.413Z,27.00
2019-06-10T07:53:24.481Z,27.06
2019-06-10T07:56:02.924Z,27.19
2019-06-10T07:58:38.843Z,27.23
2019-06-10T08:01:15.819Z,27.30
2019-06-10T08:03:52.725Z,27.34
2019-06-10T08:06:28.950Z,27.35
2019-06-10T08:09:06.525Z,27.39
2019-06-10T08:11:46.725Z,27.48
2019-06-10T08:14:22.247Z,27.58
2019-06-10T08:16:58.933Z,27.59
2019-06-10T08:19:40.042Z,27.64
2019-06-10T08:22:17.239Z,27.74
2019-06-10T08:24:52.369Z,27.80
2019-06-10T08:27:28.175Z,27.87
2019-06-10T08:30:18.567Z,27.94
2019-06-10T08:32:46.844Z,28.01
2019-06-10T08:35:37.656Z,28.11
2019-06-10T08:37:59.289Z,28.15
2019-06-10T08:40:36.318Z,28.17
2019-06-10T08:43:13.295Z,28.20
2019-06-10T08:45:49.385Z,28.30
2019-06-10T08:48:25.353Z,28.34
2019-06-10T08:51:03.258Z,28.40
2019-06-10T08:53:44.193Z,28.49
2019-06-10T08:56:17.829Z,28.53
2019-06-10T08:58:54.247Z,28.62
2019-06-10T09:01:31.082Z,28.64
2019-06-10T09:04:08.164Z,28.71
2019-06-10T09:06:48.779Z,28.72
2019-06-10T09:09:22.622Z,28.72
2019-06-10T09:11:58.690Z,28.76
2019-06-10T09:14:34.639Z,28.77
2019-06-10T09:17:12.548Z,28.68
2019-06-10T09:19:51.247Z,28.68
2019-06-10T09:22:26.661Z,28.77
2019-06-10T09:25:03.089Z,28.75
2019-06-10T09:27:42.573Z,28.80
2019-06-10T09:30:19.077Z,28.89
2019-06-10T09:32:56.820Z,28.97
2019-06-10T09:35:32.736Z,29.00
2019-06-10T09:38:08.807Z,28.98
2019-06-10T09:40:59.025Z,28.94
2019-06-10T09:43:28.087Z,28.96
2019-06-10T09:46:04.237Z,28.98
2019-06-10T09:48:46.034Z,29.05
2019-06-10T09:51:18.724Z,29.09
2019-06-10T09:54:03.167Z,29.21
2019-06-10T09:56:33.117Z,29.25
2019-06-10T09:59:12.588Z,29.29
2019-06-10T10:01:52.513Z,29.33
2019-06-10T10:04:26.394Z,29.44
2019-06-10T10:07:03.182Z,29.43
2019-06-10T10:09:42.107Z,29.48
2019-06-10T10:12:17.474Z,29.58
2019-06-10T10:14:56.153Z,29.61
2019-06-10T10:17:33.374Z,29.70
2019-06-10T10:20:09.401Z,29.63
2019-06-10T10:22:46.071Z,29.75
2019-06-10T10:25:23.591Z,29.93
2019-06-10T10:27:59.709Z,29.96
2019-06-10T10:30:35.688Z,29.98
2019-06-10T10:33:12.852Z,30.06
2019-06-10T10:35:49.314Z,30.09
2019-06-10T10:38:27.946Z,30.16
2019-06-10T10:41:04.791Z,30.26
2019-06-10T10:43:43.732Z,30.22
2019-06-10T10:46:19.299Z,30.28
2019-06-10T10:48:56.635Z,30.31
2019-06-10T10:51:32.787Z,30.30
2019-06-10T10:54:22.417Z,30.38
2019-06-10T10:56:49.196Z,30.43
2019-06-10T10:59:24.712Z,30.50
2019-06-10T11:02:02.369Z,30.50
2019-06-10T11:04:42.691Z,30.44
2019-06-10T11:07:19.082Z,30.24
2019-06-10T11:09:56.675Z,30.16
2019-06-10T11:12:34.796Z,30.25
2019-06-10T11:15:13.675Z,30.38
2019-06-10T11:17:49.509Z,30.54
2019-06-10T11:20:25.568Z,30.65
2019-06-10T11:23:02.970Z,30.71
2019-06-10T11:25:39.120Z,30.79
2019-06-10T11:28:15.082Z,30.73
2019-06-10T11:30:56.364Z,30.53
2019-06-10T11:33:28.901Z,30.36
2019-06-10T11:36:06.229Z,30.50
2019-06-10T11:38:42.592Z,30.71
2019-06-10T11:41:18.967Z,30.93
2019-06-10T11:43:57.759Z,31.07
2019-06-10T11:46:33.212Z,31.12
2019-06-10T11:49:09.285Z,31.12
2019-06-10T11:51:45.251Z,31.04
2019-06-10T11:54:23.993Z,31.08
2019-06-10T11:56:59.955Z,31.06
2019-06-10T11:59:36.174Z,31.13
2019-06-10T12:02:13.355Z,31.13
2019-06-10T12:04:51.097Z,31.05
2019-06-10T12:07:27.227Z,30.98
2019-06-10T12:10:04.215Z,30.94
2019-06-10T12:12:40.271Z,30.92
2019-06-10T12:15:16.875Z,30.91
2019-06-10T12:18:01.782Z,30.97
2019-06-10T12:20:33.382Z,31.08
2019-06-10T12:23:09.613Z,31.18
2019-06-10T12:25:47.893Z,31.26
2019-06-10T12:28:23.268Z,31.23
2019-06-10T12:31:02.009Z,31.32
2019-06-10T12:33:37.033Z,31.37
2019-06-10T12:36:14.114Z,31.40
2019-06-10T12:38:58.276Z,31.38
2019-06-10T12:41:32.644Z,31.20
2019-06-10T12:44:07.909Z,31.04
2019-06-10T12:46:44.191Z,31.06
2019-06-10T12:49:20.142Z,31.03
2019-06-10T12:51:57.397Z,30.89
2019-06-10T12:54:33.476Z,30.92
2019-06-10T12:57:09.445Z,30.95
2019-06-10T12:59:45.510Z,30.91
2019-06-10T13:02:27.829Z,30.89
2019-06-10T13:04:59.782Z,31.01
2019-06-10T13:07:42.879Z,31.28
2019-06-10T13:10:22.571Z,31.57
2019-06-10T13:13:00.134Z,31.76
2019-06-10T13:15:36.893Z,31.85
2019-06-10T13:18:19.011Z,31.89
2019-06-10T13:20:50.458Z,31.96
2019-06-10T13:23:31.969Z,31.93
2019-06-10T13:26:10.791Z,31.91
2019-06-10T13:28:44.450Z,31.90
2019-06-10T13:31:23.362Z,31.90
2019-06-10T13:34:03.857Z,31.92
2019-06-10T13:36:37.157Z,31.95
2019-06-10T13:39:13.604Z,31.95
2019-06-10T13:41:49.797Z,31.90
2019-06-10T13:44:25.848Z,31.83
2019-06-10T13:47:08.134Z,31.76
2019-06-10T13:49:39.796Z,31.79
2019-06-10T13:52:16.909Z,31.73
2019-06-10T13:54:53.147Z,31.84
2019-06-10T13:57:29.078Z,31.81
2019-06-10T14:00:12.378Z,31.77
2019-06-10T14:02:48.599Z,31.97
2019-06-10T14:05:24.755Z,32.23
2019-06-10T14:08:05.452Z,32.52
2019-06-10T14:10:39.122Z,32.76
2019-06-10T14:13:15.599Z,32.84
2019-06-10T14:15:53.429Z,32.86
2019-06-10T14:18:29.291Z,32.64
2019-06-10T14:21:09.222Z,32.26
2019-06-10T14:23:43.053Z,31.92
2019-06-10T14:26:34.529Z,31.92
2019-06-10T14:28:56.591Z,31.99
2019-06-10T14:31:40.479Z,32.11
2019-06-10T14:34:16.264Z,32.18
2019-06-10T14:36:49.579Z,32.23
2019-06-10T14:39:25.564Z,32.01
2019-06-10T14:42:04.868Z,31.92
2019-06-10T14:44:39.148Z,31.93
2019-06-10T14:47:16.422Z,31.98
2019-06-10T14:49:53.809Z,32.05
2019-06-10T14:52:31.989Z,32.03
2019-06-10T14:55:09.196Z,31.87
2019-06-10T14:57:46.303Z,31.51
2019-06-10T15:00:23.667Z,31.23
2019-06-10T15:03:02.431Z,31.27
2019-06-10T15:05:37.469Z,31.26
2019-06-10T15:08:15.453Z,31.11
2019-06-10T15:10:52.815Z,31.17
2019-06-10T15:13:28.991Z,31.36
2019-06-10T15:16:05.049Z,31.58
2019-06-10T15:18:43.147Z,31.77
2019-06-10T15:21:19.419Z,31.93
2019-06-10T15:23:56.478Z,32.03
2019-06-10T15:26:32.727Z,32.14
2019-06-10T15:29:11.148Z,32.32
2019-06-10T15:31:47.407Z,32.36
2019-06-10T15:34:24.258Z,32.39
2019-06-10T15:37:02.617Z,32.37
2019-06-10T15:39:37.892Z,32.63
2019-06-10T15:42:13.849Z,32.69
2019-06-10T15:44:55.241Z,32.73
2019-06-10T15:47:27.393Z,32.74
2019-06-10T15:50:03.567Z,32.74
2019-06-10T15:52:39.512Z,32.86
2019-06-10T15:55:42.460Z,32.92
2019-06-10T15:57:54.301Z,32.80
2019-06-10T16:00:30.461Z,32.86
2019-06-10T16:03:06.416Z,33.09
2019-06-10T16:05:42.802Z,33.15
2019-06-10T16:08:19.958Z,33.16
2019-06-10T16:10:56.334Z,32.98
2019-06-10T16:13:32.498Z,32.87
2019-06-10T16:16:08.746Z,32.73
2019-06-10T16:18:44.977Z,32.60
2019-06-10T16:21:22.006Z,32.47
2019-06-10T16:23:58.177Z,32.36
2019-06-10T16:26:35.531Z,32.44
2019-06-10T16:29:15.007Z,32.54
2019-06-10T16:31:54.224Z,32.38
2019-06-10T16:34:32.374Z,32.24
2019-06-10T16:37:08.038Z,32.35
2019-06-10T16:39:43.974Z,32.38
2019-06-10T16:42:22.962Z,32.30
2019-06-10T16:44:58.255Z,32.29
2019-06-10T16:47:35.209Z,32.38
2019-06-10T16:50:12.224Z,32.58
2019-06-10T16:52:48.215Z,32.53
2019-06-10T16:55:25.805Z,32.55
2019-06-10T16:58:02.802Z,32.62
2019-06-10T17:00:38.855Z,32.79
2019-06-10T17:03:14.838Z,32.89
2019-06-10T17:05:53.098Z,33.07
2019-06-10T17:08:28.613Z,33.29
2019-06-10T17:11:04.666Z,33.40
2019-06-10T17:13:42.244Z,33.28
2019-06-10T17:16:18.359Z,33.11
2019-06-10T17:18:54.388Z,33.17
2019-06-10T17:21:34.419Z,33.17
2019-06-10T17:24:08.007Z,33.22
2019-06-10T17:26:44.156Z,33.15
2019-06-10T17:29:22.793Z,33.11
2019-06-10T17:31:57.816Z,33.01
2019-06-10T17:34:34.081Z,32.81
2019-06-10T17:37:12.357Z,32.52
2019-06-10T17:39:47.614Z,32.40
2019-06-10T17:42:28.863Z,32.22
2019-06-10T17:45:02.529Z,32.06
2019-06-10T17:47:38.837Z,31.96
2019-06-10T17:50:14.853Z,31.82
2019-06-10T17:52:53.245Z,31.66
2019-06-10T17:55:29.621Z,31.47
2019-06-10T17:58:06.119Z,31.34
2019-06-10T18:00:42.303Z,31.15
2019-06-10T18:03:18.259Z,31.06
2019-06-10T18:05:55.155Z,30.89
2019-06-10T18:08:34.605Z,30.76
2019-06-10T18:11:08.664Z,30.62
2019-06-10T18:13:44.668Z,30.53
2019-06-10T18:16:22.786Z,30.38
2019-06-10T18:18:58.231Z,30.24
2019-06-10T18:21:36.253Z,30.09
2019-06-10T18:24:12.765Z,29.79
2019-06-10T18:26:48.836Z,29.64
2019-06-10T18:29:25.175Z,29.51
2019-06-10T18:32:03.274Z,29.32
2019-06-10T18:34:38.771Z,29.24
2019-06-10T18:37:14.721Z,29.05
2019-06-10T18:39:52.213Z,28.88
2019-06-10T18:42:28.569Z,28.66
2019-06-10T18:45:09.530Z,28.66
2019-06-10T18:47:53.107Z,28.58
2019-06-10T18:50:30.301Z,28.31
2019-06-10T18:53:07.280Z,28.00
2019-06-10T18:55:43.729Z,27.71
2019-06-10T18:58:22.176Z,27.48
2019-06-10T19:01:03.947Z,27.23
2019-06-10T19:03:36.673Z,27.07
2019-06-10T19:06:13.104Z,26.92
2019-06-10T19:08:49.032Z,26.77
2019-06-10T19:11:24.987Z,26.65
2019-06-10T19:14:03.171Z,26.50
2019-06-10T19:16:38.937Z,26.40
2019-06-10T19:19:16.975Z,26.29
2019-06-10T19:22:04.591Z,26.19
2019-06-10T19:24:34.279Z,26.12
2019-06-10T19:27:09.047Z,26.05
2019-06-10T19:29:50.764Z,25.98
2019-06-10T19:32:22.795Z,25.93
2019-06-10T19:34:58.860Z,25.87
2019-06-10T19:37:37.121Z,25.80
2019-06-10T19:40:13.610Z,25.74
2019-06-10T19:42:49.597Z,25.68
2019-06-10T19:45:25.549Z,25.62
2019-06-10T19:48:03.353Z,25.59
2019-06-10T19:50:47.600Z,25.54
2019-06-10T19:53:18.416Z,25.49
2019-06-10T19:55:54.399Z,25.43
2019-06-10T19:58:32.365Z,25.37
2019-06-10T20:01:08.141Z,25.31
2019-06-10T20:03:46.442Z,25.29
2019-06-10T20:06:21.899Z,25.27
2019-06-10T20:08:57.954Z,25.23
2019-06-10T20:11:34.128Z,25.21
2019-06-10T20:14:12.698Z,25.21
2019-06-10T20:16:48.130Z,25.19
2019-06-10T20:19:25.267Z,25.15
2019-06-10T20:22:01.222Z,25.10
2019-06-10T20:24:38.427Z,25.07
2019-06-10T20:27:14.477Z,25.03
2019-06-10T20:30:04.647Z,25.00
2019-06-10T20:32:28.232Z,24.97
2019-06-10T20:35:05.418Z,24.92
2019-06-10T20:37:44.253Z,24.87
2019-06-10T20:40:19.983Z,24.83
2019-06-10T20:42:55.960Z,24.78
2019-06-10T20:45:33.237Z,24.72
2019-06-10T20:48:09.491Z,24.69
2019-06-10T20:50:47.338Z,24.64
2019-06-10T20:53:23.460Z,24.58
2019-06-10T20:55:59.518Z,24.55
2019-06-10T20:58:35.581Z,24.51
2019-06-10T21:01:12.547Z,24.47
2019-06-10T21:03:49.908Z,24.43
2019-06-10T21:06:27.234Z,24.38
2019-06-10T21:09:06.406Z,24.33
2019-06-10T21:11:46.392Z,24.28
2019-06-10T21:14:22.909Z,24.23
2019-06-10T21:16:58.630Z,24.17
2019-06-10T21:19:34.597Z,24.12
2019-06-10T21:22:12.890Z,24.04
2019-06-10T21:24:48.786Z,23.98
2019-06-10T21:27:24.913Z,23.92
2019-06-10T21:30:03.118Z,23.84
2019-06-10T21:32:38.666Z,23.79
2019-06-10T21:35:14.750Z,23.77
2019-06-10T21:37:51.716Z,23.74
2019-06-10T21:40:27.756Z,23.72
2019-06-10T21:43:03.822Z,23.74
2019-06-10T21:45:42.479Z,23.71
2019-06-10T21:48:17.475Z,23.70
2019-06-10T21:50:55.814Z,23.71
2019-06-10T21:53:31.129Z,23.69
2019-06-10T21:56:07.085Z,23.66
2019-06-10T21:58:43.905Z,23.62
2019-06-10T22:01:22.403Z,23.59
2019-06-10T22:04:01.034Z,23.53
2019-06-10T22:06:37.150Z,23.48
2019-06-10T22:09:13.137Z,23.44
2019-06-10T22:11:50.073Z,23.38
2019-06-10T22:14:26.876Z,23.30
2019-06-10T22:17:03.157Z,23.23
2019-06-10T22:19:39.810Z,23.17
2019-06-10T22:22:15.756Z,23.13
2019-06-10T22:24:53.629Z,23.05
2019-06-10T22:27:29.410Z,22.98
2019-06-10T22:30:11.368Z,22.89
2019-06-10T22:32:47.251Z,22.85
2019-06-10T22:35:23.441Z,22.78
2019-06-10T22:37:59.390Z,22.76
2019-06-10T22:40:35.347Z,22.71
2019-06-10T22:43:12.928Z,22.66
2019-06-10T22:45:49.470Z,22.61
2019-06-10T22:48:25.571Z,22.59
2019-06-10T22:51:01.534Z,22.51
2019-06-10T22:53:37.691Z,22.45
2019-06-10T22:56:13.747Z,22.41
2019-06-10T22:58:52.706Z,22.36
2019-06-10T23:01:34.170Z,22.31
2019-06-10T23:04:05.199Z,22.29
2019-06-10T23:06:41.149Z,22.27
2019-06-10T23:09:17.115Z,22.23
2019-06-10T23:11:54.393Z,22.22
2019-06-10T23:14:33.061Z,22.18
2019-06-10T23:17:08.966Z,22.17
2019-06-10T23:19:45.040Z,22.12
2019-06-10T23:22:22.005Z,22.09
2019-06-10T23:24:58.381Z,22.05
2019-06-10T23:27:34.329Z,22.01
2019-06-10T23:30:11.961Z,21.99
2019-06-10T23:32:48.096Z,21.95
2019-06-10T23:35:24.357Z,21.92
2019-06-10T23:38:04.834Z,21.88
2019-06-10T23:40:38.009Z,21.86
2019-06-10T23:43:13.969Z,21.83
2019-06-10T23:45:51.118Z,21.78
2019-06-10T23:48:27.098Z,21.77
2019-06-10T23:51:04.881Z,21.74
2019-06-10T23:53:40.763Z,21.70
2019-06-10T23:56:16.708Z,21.66
2019-06-10T23:58:55.563Z,21.64
